Time;durP1;ratioP1;P1;durP2;ratioP2;P2;SDS_P1;SDS_P2;PMS_P1;PMS_P2;Temp;Humidity;BMP_temperature;BMP_pressure;BME280_temperature;BME280_humidity;BME280_pressure;Samples;Min_cycle;Max_cycle;Signal;HPM_P1;HPM_P2
2023/02/02 00:01:44;;;;;;;8.67;4.70;;;3.10;99.90;;;2.87;82.45;98974.31;5065414;28;20636;-67
2023/02/02 00:04:18;;;;;;;7.47;4.90;;;3.00;99.90;;;2.87;82.34;98971.75;5052461;28;20256;-69
2023/02/02 00:06:47;;;;;;;5.77;4.73;;;3.10;99.90;;;2.87;82.14;98965.00;5067679;28;20193;-67
2023/02/02 00:09:17;;;;;;;6.33;4.67;;;3.10;99.90;;;2.88;81.70;98970.94;5070279;28;20232;-67
2023/02/02 00:11:49;;;;;;;7.10;4.43;;;3.10;99.90;;;2.88;82.03;98969.25;5080328;28;20227;-66
2023/02/02 00:14:18;;;;;;;7.67;5.00;;;3.10;99.90;;;2.87;82.09;98970.09;5071633;28;20661;-68
2023/02/02 00:16:47;;;;;;;6.20;4.60;;;3.10;99.90;;;2.87;82.35;98956.50;5070697;28;20288;-68
2023/02/02 00:19:21;;;;;;;6.77;4.77;;;3.10;99.90;;;2.90;82.11;98970.06;5050411;28;20260;-66
2023/02/02 00:21:49;;;;;;;7.97;4.93;;;3.10;99.90;;;2.90;82.50;98959.06;5068179;28;20223;-67
2023/02/02 00:24:19;;;;;;;9.10;4.87;;;3.10;99.90;;;2.91;82.06;98965.88;5068833;28;20282;-68
2023/02/02 00:26:50;;;;;;;9.13;5.87;;;3.10;99.90;;;2.92;81.99;98957.38;5077991;28;20227;-68
2023/02/02 00:29:22;;;;;;;8.83;5.80;;;3.10;99.90;;;2.96;81.81;98958.22;5058683;28;20237;-68
2023/02/02 00:31:51;;;;;;;8.13;5.67;;;3.10;99.90;;;2.97;81.56;98955.69;5068593;28;20205;-67
2023/02/02 00:34:23;;;;;;;7.10;5.43;;;3.20;99.90;;;2.98;81.13;98949.72;5054247;28;20297;-68
2023/02/02 00:36:52;;;;;;;7.90;5.53;;;3.10;99.90;;;2.96;81.60;98945.50;5077507;28;20228;-68
2023/02/02 00:39:25;;;;;;;7.53;5.07;;;3.10;99.90;;;2.93;81.72;98946.34;5075714;28;20319;-67
2023/02/02 00:41:54;;;;;;;8.77;5.83;;;3.10;99.90;;;2.96;81.35;98948.06;5074153;28;20649;-67
2023/02/02 00:47:08;;;;;;;7.17;5.27;;;3.10;99.90;;;2.92;81.17;98954.84;5067831;28;20204;-67
2023/02/02 00:49:38;;;;;;;9.27;5.57;;;3.10;99.90;;;2.89;81.82;98953.13;5077321;28;20212;-68
2023/02/02 00:52:07;;;;;;;8.63;5.20;;;3.10;99.90;;;2.89;81.50;98950.59;5057063;28;20230;-68
2023/02/02 00:54:36;;;;;;;7.63;5.37;;;3.10;99.90;;;2.88;82.05;98951.44;5074725;28;20222;-64
2023/02/02 00:57:04;;;;;;;8.23;5.73;;;3.10;99.90;;;2.86;81.94;98947.19;5055622;28;20242;-68
2023/02/02 00:59:33;;;;;;;8.17;5.53;;;3.00;99.90;;;2.88;82.38;98951.44;5078309;28;20209;-67
2023/02/02 01:02:01;;;;;;;6.97;5.20;;;3.10;99.90;;;2.86;82.26;98953.13;5087754;28;20250;-66
2023/02/02 01:04:30;;;;;;;9.20;5.87;;;3.10;99.90;;;2.87;82.09;98954.84;5083891;28;20235;-68
2023/02/02 01:07:00;;;;;;;7.43;5.37;;;3.10;99.90;;;2.86;81.27;98958.19;5055722;28;20209;-68
2023/02/02 01:09:28;;;;;;;8.67;5.60;;;3.00;99.90;;;2.83;81.34;98957.34;5074605;28;20656;-67
2023/02/02 01:11:56;;;;;;;8.20;5.50;;;3.00;99.90;;;2.78;81.18;98954.81;5076184;28;20229;-67
2023/02/02 01:14:25;;;;;;;6.90;5.00;;;2.90;99.90;;;2.71;81.08;98958.16;5061576;28;20580;-68
2023/02/02 01:16:54;;;;;;;8.37;4.73;;;2.90;99.90;;;2.63;81.19;98957.31;5078378;28;20204;-66
2023/02/02 01:19:22;;;;;;;6.63;4.97;;;2.70;99.90;;;2.53;81.03;98955.56;5055778;28;20382;-66
2023/02/02 01:21:51;;;;;;;6.70;4.40;;;2.70;99.90;;;2.49;80.58;98956.41;5071140;28;20205;-67
2023/02/02 01:24:20;;;;;;;9.03;5.47;;;2.60;99.90;;;2.41;80.68;98952.16;5069650;28;20256;-67
2023/02/02 01:26:49;;;;;;;5.80;4.37;;;2.50;99.90;;;2.36;80.74;98955.53;5073828;28;20291;-67
2023/02/02 01:29:17;;;;;;;6.83;4.83;;;2.50;99.90;;;2.28;80.67;98949.56;5064595;28;20747;-66
2023/02/02 01:31:45;;;;;;;7.23;4.77;;;2.40;99.90;;;2.23;80.35;98947.00;5066059;28;20973;-68
2023/02/02 01:34:14;;;;;;;6.13;4.87;;;2.40;99.90;;;2.19;80.20;98945.28;5081722;28;20223;-63
2023/02/02 01:36:42;;;;;;;6.30;4.80;;;2.30;99.90;;;2.13;80.29;98948.63;5071801;28;20209;-67
2023/02/02 01:39:11;;;;;;;7.57;4.57;;;2.20;99.90;;;2.10;80.84;98947.78;5076515;28;20259;-67
2023/02/02 01:41:41;;;;;;;6.23;4.73;;;2.20;99.90;;;2.04;80.96;98948.59;5071564;28;20222;-67
2023/02/02 01:45:13;;;;;;;9.33;4.93;;;2.20;99.90;;;2.01;81.78;98953.66;5081530;28;20224;-66
2023/02/02 01:47:46;;;;;;;6.27;4.47;;;2.10;99.90;;;2.00;81.12;98956.22;5074041;28;20266;-66
2023/02/02 01:50:17;;;;;;;7.27;4.77;;;2.10;99.90;;;1.94;81.91;98951.94;5072705;28;20198;-65
2023/02/02 01:52:49;;;;;;;7.77;5.30;;;2.10;99.90;;;1.92;81.56;98948.56;5081181;28;20262;-68
2023/02/02 01:55:23;;;;;;;6.97;4.57;;;2.00;99.90;;;1.90;81.58;98951.06;5074352;28;20228;-67
2023/02/02 01:58:00;;;;;;;7.73;4.53;;;2.00;99.90;;;1.90;82.54;98956.16;5071894;28;20205;-66
2023/02/02 02:00:29;;;;;;;7.30;5.10;;;2.00;99.90;;;1.91;82.53;98947.72;5064760;28;20669;-64
2023/02/02 02:03:02;;;;;;;6.27;4.80;;;2.00;99.90;;;1.90;82.32;98951.06;5085371;28;20204;-65
2023/02/02 02:05:35;;;;;;;8.20;5.07;;;2.10;99.90;;;1.93;83.13;98955.31;5073655;28;20738;-63
2023/02/02 02:08:17;;;;;;;7.43;4.73;;;2.10;99.90;;;1.93;83.27;98961.25;5077140;28;20205;-63
2023/02/02 02:10:46;;;;;;;7.30;5.17;;;2.20;99.90;;;1.97;82.78;98962.13;5072746;28;20205;-67
2023/02/02 02:13:17;;;;;;;6.30;4.77;;;2.20;99.90;;;2.00;83.87;98957.06;5071770;28;20296;-65
2023/02/02 02:19:01;;;;;;;8.30;4.70;;;2.20;99.90;;;2.08;84.16;98965.56;5072390;28;20206;-66
2023/02/02 02:28:59;;;;;;;7.87;4.47;;;2.40;99.90;;;2.21;83.25;98947.81;5075665;28;20270;-64
2023/02/02 02:32:04;;;;;;;7.83;4.40;;;2.30;99.90;;;2.23;83.82;98953.78;5048785;28;20270;-64
2023/02/02 02:34:51;;;;;;;5.70;4.70;;;2.40;99.90;;;2.25;83.48;98952.94;5077350;28;20197;-66
2023/02/02 02:37:30;;;;;;;5.43;3.90;;;2.40;99.90;;;2.25;84.22;98945.31;5065606;28;20255;-66
2023/02/02 02:40:08;;;;;;;7.40;4.07;;;2.40;99.90;;;2.26;84.15;98949.56;5074424;28;20240;-65
2023/02/02 02:42:44;;;;;;;6.33;4.27;;;2.50;99.90;;;2.28;84.64;98958.03;5070516;28;20213;-65
2023/02/02 02:45:13;;;;;;;4.80;3.73;;;2.50;99.90;;;2.29;84.07;98952.13;5055840;28;20240;-65
2023/02/02 02:47:44;;;;;;;4.63;3.90;;;2.50;99.90;;;2.29;83.96;98948.72;5064370;28;20690;-64
2023/02/02 02:50:13;;;;;;;4.50;3.60;;;2.50;99.90;;;2.27;83.49;98951.25;5083462;28;20198;-65
2023/02/02 02:52:41;;;;;;;5.20;3.37;;;2.50;99.90;;;2.25;83.37;98952.09;5071196;28;20241;-66
2023/02/02 02:55:11;;;;;;;4.23;3.60;;;2.50;99.90;;;2.25;83.27;98954.66;5068195;28;20206;-64
2023/02/02 02:58:03;;;;;;;5.43;3.83;;;2.40;99.90;;;2.21;83.57;98960.53;5066634;28;20255;-65
2023/02/02 03:00:47;;;;;;;6.57;3.93;;;2.40;99.90;;;2.21;83.19;98961.41;5070629;28;20668;-63
2023/02/02 03:03:33;;;;;;;5.50;4.23;;;2.40;99.90;;;2.23;84.16;98958.84;5065789;28;20645;-64
2023/02/02 03:06:12;;;;;;;6.83;4.20;;;2.40;99.90;;;2.24;84.30;98965.63;5078952;28;20212;-64
2023/02/02 03:08:46;;;;;;;9.57;4.53;;;2.40;99.90;;;2.28;84.30;98959.72;5073495;28;20251;-66
2023/02/02 03:11:16;;;;;;;8.07;4.60;;;2.50;99.90;;;2.31;85.00;98962.28;5076087;28;20230;-65
2023/02/02 03:13:45;;;;;;;9.37;4.90;;;2.50;99.90;;;2.36;84.90;98958.09;5082811;28;20225;-64
2023/02/02 03:16:16;;;;;;;7.97;5.20;;;2.50;99.90;;;2.38;84.87;98959.75;5076117;28;20229;-65
2023/02/02 03:18:46;;;;;;;7.93;5.07;;;2.60;99.90;;;2.42;84.23;98958.09;5069442;28;20205;-64
2023/02/02 03:21:14;;;;;;;6.50;4.77;;;2.60;99.90;;;2.46;84.12;98957.25;5055981;28;20274;-65
2023/02/02 03:23:43;;;;;;;6.23;4.60;;;2.70;99.90;;;2.50;84.74;98963.19;5070140;28;20275;-65
2023/02/02 03:26:11;;;;;;;8.87;5.03;;;2.70;99.90;;;2.54;85.19;98957.28;5070137;28;20229;-65
2023/02/02 03:30:47;;;;;;;9.80;4.90;;;2.70;99.90;;;2.59;84.65;98951.38;5092582;27;20625;-64
2023/02/02 03:33:17;;;;;;;8.80;5.10;;;2.80;99.90;;;2.66;84.34;98953.09;5088792;28;20204;-65
2023/02/02 03:35:46;;;;;;;10.00;5.37;;;2.80;99.90;;;2.69;84.78;98957.34;5085890;28;20200;-65
2023/02/02 03:38:14;;;;;;;8.60;4.90;;;2.90;99.90;;;2.72;83.91;98962.41;5085209;28;20278;-63
2023/02/02 03:40:43;;;;;;;10.43;4.70;;;2.90;99.90;;;2.75;84.75;98967.50;5089193;28;20201;-65
2023/02/02 03:43:11;;;;;;;10.63;5.33;;;2.90;99.90;;;2.78;84.45;98964.97;5089094;28;20623;-66
2023/02/02 03:45:40;;;;;;;10.50;4.40;;;3.00;99.90;;;2.81;84.89;98965.00;5088227;28;20287;-64
2023/02/02 03:48:10;;;;;;;9.47;4.43;;;3.00;99.90;;;2.84;84.15;98965.00;5088273;28;20308;-64
2023/02/02 03:50:38;;;;;;;8.80;4.33;;;3.00;99.90;;;2.87;84.73;98965.00;5088247;28;20228;-66
2023/02/02 03:53:07;;;;;;;11.07;4.77;;;3.10;99.90;;;2.89;84.60;98965.00;5089398;28;20228;-63
2023/02/02 03:55:37;;;;;;;7.97;4.03;;;3.10;99.90;;;2.91;83.73;98960.78;5082999;28;20216;-65
2023/02/02 03:58:05;;;;;;;6.03;3.40;;;3.10;99.90;;;2.89;84.44;98953.13;5088171;28;20255;-65
2023/02/02 04:00:34;;;;;;;13.23;4.13;;;3.10;99.90;;;2.92;84.06;98949.75;5086666;28;20259;-66
2023/02/02 04:03:02;;;;;;;9.33;3.80;;;3.10;99.90;;;2.92;83.82;98957.38;5088748;28;20216;-64
2023/02/02 04:05:32;;;;;;;8.13;3.80;;;3.20;99.90;;;2.93;84.04;98955.69;5079317;28;20277;-64
2023/02/02 04:08:01;;;;;;;9.70;3.50;;;3.10;99.90;;;2.94;83.79;98957.38;5087784;28;20201;-67
2023/02/02 04:10:29;;;;;;;6.70;3.80;;;3.20;99.90;;;2.96;83.73;98964.16;5084945;28;20264;-67
2023/02/02 04:12:58;;;;;;;6.63;3.73;;;3.20;99.90;;;2.97;83.31;98950.59;5086994;28;20247;-64
2023/02/02 04:15:26;;;;;;;7.47;3.50;;;3.20;99.90;;;2.98;83.73;98951.44;5087135;28;20205;-64
2023/02/02 04:17:55;;;;;;;11.57;3.63;;;3.20;99.90;;;3.01;83.27;98954.00;5088547;28;20227;-64
2023/02/02 04:20:23;;;;;;;8.33;3.50;;;3.20;99.90;;;3.03;83.48;98944.69;5087506;28;20200;-64
2023/02/02 04:22:54;;;;;;;7.97;3.37;;;3.30;99.90;;;3.06;83.08;98949.78;5087111;28;20209;-66
2023/02/02 04:25:23;;;;;;;12.00;3.57;;;3.20;99.90;;;3.07;83.58;98951.47;5088612;28;20205;-66
2023/02/02 04:27:51;;;;;;;9.43;3.50;;;3.30;99.90;;;3.08;83.43;98948.06;5080544;28;20584;-64
2023/02/02 04:30:20;;;;;;;7.20;3.77;;;3.20;99.90;;;3.09;82.98;98949.75;5064535;28;20237;-66
2023/02/02 04:32:50;;;;;;;7.63;3.37;;;3.30;99.90;;;3.11;82.74;98960.78;5065764;28;20251;-64
2023/02/02 04:35:19;;;;;;;6.57;3.10;;;3.30;99.90;;;3.12;83.34;98954.84;5067354;28;20198;-65
2023/02/02 04:37:47;;;;;;;10.00;3.77;;;3.30;99.90;;;3.13;82.42;98952.31;5066434;28;20210;-66
2023/02/02 04:40:17;;;;;;;10.57;3.87;;;3.30;99.90;;;3.12;82.75;98958.22;5062027;28;20252;-65
2023/02/02 04:42:45;;;;;;;8.77;3.70;;;3.30;99.90;;;3.15;82.37;98962.50;5046165;28;20577;-63
2023/02/02 04:45:14;;;;;;;10.57;3.40;;;3.30;99.90;;;3.15;82.32;98965.88;5049152;28;20202;-64
2023/02/02 04:47:42;;;;;;;12.30;3.77;;;3.40;99.90;;;3.15;81.86;98965.88;5052987;28;20213;-65
2023/02/02 04:50:12;;;;;;;11.03;3.70;;;3.40;99.90;;;3.14;82.12;98956.56;5053629;28;20225;-65
2023/02/02 04:52:40;;;;;;;8.67;2.87;;;3.40;99.90;;;3.17;82.67;98960.81;5052528;28;20212;-65
2023/02/02 04:55:09;;;;;;;9.23;3.30;;;3.40;99.90;;;3.18;82.27;98964.19;5054667;28;20268;-66
2023/02/02 04:57:39;;;;;;;9.13;3.63;;;3.40;99.90;;;3.15;82.01;98962.50;5054153;28;20232;-65
2023/02/02 05:00:10;;;;;;;14.33;3.63;;;3.40;99.90;;;3.15;82.16;98959.94;5047986;28;20202;-66
2023/02/02 05:02:40;;;;;;;9.27;2.80;;;3.30;99.90;;;3.14;82.17;98960.81;5051698;28;20210;-65
2023/02/02 05:05:13;;;;;;;10.93;2.97;;;3.40;99.90;;;3.16;81.51;98959.09;5050890;28;20206;-64
2023/02/02 05:07:41;;;;;;;9.93;2.80;;;3.40;99.90;;;3.16;81.66;98956.53;5053858;28;20209;-66
2023/02/02 05:10:11;;;;;;;9.53;3.30;;;3.30;99.90;;;3.16;81.70;98961.63;5052467;28;20229;-67
2023/02/02 05:12:41;;;;;;;7.97;2.83;;;3.40;99.90;;;3.15;81.92;98960.78;5046648;28;20671;-66
2023/02/02 05:15:11;;;;;;;9.40;3.20;;;3.40;99.90;;;3.18;81.77;98964.19;5051456;28;20225;-65
2023/02/02 05:17:40;;;;;;;10.93;3.30;;;3.40;99.90;;;3.18;81.16;98966.75;5054590;28;20216;-66
2023/02/02 05:20:10;;;;;;;12.27;3.40;;;3.40;99.90;;;3.18;81.91;98970.13;5045542;28;20198;-66
2023/02/02 05:22:39;;;;;;;8.70;2.77;;;3.40;99.90;;;3.17;81.57;98971.00;5052961;28;20233;-65
2023/02/02 05:25:08;;;;;;;8.43;2.93;;;3.40;99.90;;;3.19;81.97;98966.72;5050886;28;20206;-65
2023/02/02 05:27:37;;;;;;;9.00;2.80;;;3.40;99.90;;;3.20;81.23;98967.56;5053375;28;20741;-65
2023/02/02 05:30:10;;;;;;;11.50;2.87;;;3.40;99.90;;;3.21;80.94;98974.38;5052380;28;20295;-66
2023/02/02 05:32:38;;;;;;;7.93;2.63;;;3.40;99.90;;;3.22;81.20;98966.75;5051185;28;20210;-64
2023/02/02 05:35:09;;;;;;;10.13;2.80;;;3.40;99.90;;;3.24;81.54;98965.06;5050673;28;20283;-64
2023/02/02 05:37:38;;;;;;;10.13;3.03;;;3.40;99.90;;;3.26;80.80;98967.59;5047035;28;20206;-65
2023/02/02 05:40:08;;;;;;;9.63;2.57;;;3.50;99.90;;;3.25;81.18;98964.19;5049790;28;20275;-65
2023/02/02 05:42:36;;;;;;;13.83;2.47;;;3.40;99.90;;;3.26;80.99;98962.50;5047082;28;20214;-66
2023/02/02 05:45:07;;;;;;;7.33;2.30;;;3.40;99.90;;;3.25;80.37;98961.66;5052386;28;20202;-66
2023/02/02 05:47:36;;;;;;;7.80;2.23;;;3.40;99.90;;;3.25;80.76;98960.81;5046634;28;20233;-65
2023/02/02 05:50:05;;;;;;;7.83;2.40;;;3.50;99.90;;;3.25;80.73;98966.75;5054049;28;20745;-65
2023/02/02 05:52:35;;;;;;;11.67;2.70;;;3.40;99.90;;;3.27;80.68;98970.13;5052228;28;20292;-64
2023/02/02 05:55:04;;;;;;;5.37;2.70;;;3.50;99.90;;;3.25;80.87;98971.84;5051340;28;20248;-66
2023/02/02 05:57:33;;;;;;;8.50;2.37;;;3.40;99.90;;;3.25;80.46;98968.44;5054549;28;20308;-65
2023/02/02 06:00:01;;;;;;;9.73;2.70;;;3.50;99.90;;;3.24;80.89;98965.06;5048660;28;20237;-65
2023/02/02 06:02:31;;;;;;;8.60;3.07;;;3.40;99.90;;;3.25;80.01;98966.75;5048126;28;20654;-63
2023/02/02 06:05:00;;;;;;;11.20;2.83;;;3.40;99.90;;;3.22;80.76;98959.09;5049718;28;20622;-66
2023/02/02 06:07:28;;;;;;;14.67;2.77;;;3.40;99.90;;;3.25;80.13;98969.28;5054228;28;20198;-66
2023/02/02 06:09:57;;;;;;;8.20;2.30;;;3.50;99.90;;;3.25;80.68;98966.75;5053702;28;20255;-70
2023/02/02 06:12:25;;;;;;;7.03;2.27;;;3.40;99.90;;;3.28;81.11;98971.00;5040270;28;20209;-69
2023/02/02 06:14:54;;;;;;;8.50;2.40;;;3.40;99.90;;;3.30;80.07;98969.28;5053941;28;20670;-69
2023/02/02 06:17:22;;;;;;;9.97;2.60;;;3.40;99.90;;;3.30;80.23;98965.03;5042669;28;20529;-70
2023/02/02 06:19:52;;;;;;;8.03;2.50;;;3.50;99.90;;;3.33;79.79;98970.13;5046721;28;20223;-69
2023/02/02 06:22:20;;;;;;;11.77;2.87;;;3.50;99.90;;;3.34;80.56;98963.34;5043380;28;20210;-69
2023/02/02 06:24:49;;;;;;;8.83;2.60;;;3.50;99.90;;;3.35;80.57;98965.91;5041311;28;20209;-69
2023/02/02 06:27:17;;;;;;;8.93;2.60;;;3.60;99.90;;;3.38;79.83;98965.03;5047828;28;20214;-70
2023/02/02 06:29:45;;;;;;;13.50;3.27;;;3.60;99.90;;;3.41;79.86;98969.28;5047275;28;20249;-69
2023/02/02 06:32:14;;;;;;;9.23;2.87;;;3.60;99.90;;;3.43;80.30;98962.50;5050092;28;20268;-69
2023/02/02 06:34:42;;;;;;;6.80;2.63;;;3.60;99.90;;;3.46;80.15;98962.47;5042681;28;20233;-65
2023/02/02 06:37:12;;;;;;;8.10;2.40;;;3.60;99.90;;;3.48;79.24;98963.34;5048996;28;20201;-69
2023/02/02 06:39:40;;;;;;;4.67;2.33;;;3.60;99.90;;;3.49;79.84;98959.94;5043645;28;20224;-68
2023/02/02 06:42:09;;;;;;;6.73;2.27;;;3.60;99.90;;;3.48;78.84;98964.19;5047557;28;20205;-67
2023/02/02 06:44:49;;;;;;;7.23;2.47;;;3.70;99.90;;;3.49;79.25;98954.84;5041817;28;20242;-71
2023/02/02 06:47:17;;;;;;;12.93;3.30;;;3.70;99.90;;;3.49;79.23;98953.16;5038229;28;20214;-70
2023/02/02 06:49:45;;;;;;;7.53;2.83;;;3.70;99.90;;;3.51;78.79;98959.09;5045387;28;20211;-69
2023/02/02 06:52:15;;;;;;;5.83;2.70;;;3.70;99.90;;;3.52;78.64;98957.41;5043784;28;20248;-71
2023/02/02 06:54:43;;;;;;;7.70;2.70;;;3.70;99.90;;;3.54;78.89;98958.25;5059433;28;20181;-64
2023/02/02 06:57:12;;;;;;;8.77;2.93;;;3.70;99.90;;;3.54;79.06;98954.00;5062820;28;20198;-70
2023/02/02 06:59:40;;;;;;;6.63;2.50;;;3.70;99.90;;;3.53;78.91;98956.53;5036895;28;20221;-68
2023/02/02 07:02:12;;;;;;;4.47;2.17;;;3.70;99.90;;;3.49;78.58;98950.59;5047051;28;20593;-66
2023/02/02 07:04:40;;;;;;;6.97;2.47;;;3.70;99.90;;;3.47;79.12;98951.47;5047166;28;20206;-69
2023/02/02 07:07:09;;;;;;;6.80;2.40;;;3.70;99.90;;;3.46;80.27;98947.22;5048110;28;20206;-66
2023/02/02 07:09:38;;;;;;;4.67;2.90;;;3.60;99.90;;;3.48;80.15;98948.06;5046492;28;20291;-67
2023/02/02 07:12:07;;;;;;;4.30;2.67;;;3.70;99.90;;;3.48;80.25;98942.97;5045730;28;20218;-65
2023/02/02 07:14:35;;;;;;;5.17;2.30;;;3.70;99.90;;;3.51;79.36;98940.44;5052217;28;20280;-66
2023/02/02 07:17:04;;;;;;;4.23;2.43;;;3.60;99.90;;;3.50;79.98;98947.22;5050349;28;20218;-65
2023/02/02 07:19:32;;;;;;;5.43;2.70;;;3.70;99.90;;;3.53;79.68;98944.66;5044824;28;20220;-65
2023/02/02 07:22:00;;;;;;;5.37;2.80;;;3.80;99.90;;;3.55;79.81;98954.84;5049176;28;20674;-67
2023/02/02 07:24:29;;;;;;;5.27;3.17;;;3.60;99.90;;;3.53;80.20;98949.75;5050301;28;20214;-65
2023/02/02 07:26:59;;;;;;;7.70;3.53;;;3.70;99.90;;;3.56;79.74;98949.75;5053143;28;20231;-66
2023/02/02 07:29:27;;;;;;;6.80;3.23;;;3.80;99.90;;;3.58;80.07;98949.75;5046240;28;20245;-64
2023/02/02 07:31:56;;;;;;;6.07;3.47;;;3.70;99.90;;;3.56;79.80;98952.28;5047389;28;20241;-65
2023/02/02 07:34:25;;;;;;;10.73;3.90;;;3.70;99.90;;;3.56;80.61;98934.47;5049633;28;20206;-67
2023/02/02 07:36:53;;;;;;;6.63;3.37;;;3.70;99.90;;;3.57;80.12;98948.91;5045923;28;20335;-66
2023/02/02 07:39:22;;;;;;;7.30;3.83;;;3.70;99.90;;;3.58;79.80;98959.94;5052552;28;20210;-66
2023/02/02 07:41:50;;;;;;;6.30;3.40;;;3.70;99.90;;;3.56;80.27;98952.28;5040705;28;20546;-62
2023/02/02 07:44:20;;;;;;;5.03;3.07;;;3.70;99.90;;;3.59;80.35;98956.53;5043861;28;20238;-64
2023/02/02 07:46:49;;;;;;;5.87;3.03;;;3.70;99.90;;;3.58;80.08;98949.75;5043966;28;20729;-64
2023/02/02 07:49:19;;;;;;;8.03;3.00;;;3.70;99.90;;;3.57;80.06;98958.22;5050714;28;20833;-68
2023/02/02 07:51:48;;;;;;;6.97;2.87;;;3.70;99.90;;;3.57;80.18;98954.00;5063769;28;20240;-76
2023/02/02 07:54:16;;;;;;;4.67;2.97;;;3.70;99.90;;;3.55;80.14;98949.75;5051776;28;20225;-68
2023/02/02 07:56:45;;;;;;;7.97;3.83;;;3.70;99.90;;;3.53;80.16;98952.28;5063210;28;20202;-67
2023/02/02 07:59:13;;;;;;;6.20;3.70;;;3.70;99.90;;;3.53;79.85;98956.53;5059924;28;20212;-67
2023/02/02 08:01:43;;;;;;;4.07;2.80;;;3.60;99.90;;;3.53;79.93;98952.28;5049591;28;20658;-67
2023/02/02 08:04:12;;;;;;;4.63;3.17;;;3.70;99.90;;;3.50;80.30;98954.88;5052948;28;20208;-64
2023/02/02 08:06:40;;;;;;;5.43;3.37;;;3.60;99.90;;;3.49;79.87;98960.78;5045357;28;20214;-65
2023/02/02 08:09:10;;;;;;;5.53;3.20;;;3.60;99.90;;;3.47;80.07;98956.56;5049829;28;20299;-67
2023/02/02 08:11:39;;;;;;;4.23;3.33;;;3.60;99.90;;;3.46;80.95;98965.03;5059033;28;20238;-67
2023/02/02 08:14:07;;;;;;;6.50;3.90;;;3.60;99.90;;;3.44;80.80;98969.28;5057670;28;20856;-70
2023/02/02 08:16:36;;;;;;;5.80;3.43;;;3.60;99.90;;;3.45;80.32;98965.88;5042528;28;20209;-70
2023/02/02 08:19:06;;;;;;;4.87;3.23;;;3.60;99.90;;;3.45;80.71;98961.63;5052658;28;20240;-68
2023/02/02 08:21:35;;;;;;;5.30;2.93;;;3.60;99.90;;;3.50;80.11;98976.91;5061409;28;20267;-70
2023/02/02 08:24:04;;;;;;;3.57;2.67;;;3.60;99.90;;;3.48;79.96;98965.91;5058903;28;20194;-69
2023/02/02 08:26:33;;;;;;;4.97;3.25;;;3.60;99.90;;;3.47;80.44;98971.84;5060720;28;20810;-69
2023/02/02 08:29:06;;;;;;;4.53;2.67;;;3.60;99.90;;;3.48;80.13;98973.53;5060280;28;20237;-71
2023/02/02 08:31:37;;;;;;;6.18;3.63;;;3.60;99.90;;;3.50;80.14;98972.69;5053193;28;20455;-65
2023/02/02 08:34:08;;;;;;;4.13;2.80;;;3.60;99.90;;;3.51;79.59;98968.44;5059910;28;20198;-68
2023/02/02 08:36:36;;;;;;;1.83;1.70;;;3.60;99.90;;;3.55;79.95;98977.78;5063361;28;20212;-67
2023/02/02 08:39:08;;;;;;;2.57;1.70;;;3.60;99.90;;;3.57;79.73;98973.50;5057784;28;20210;-63
2023/02/02 08:41:36;;;;;;;3.50;2.10;;;3.60;99.90;;;3.59;79.74;98970.13;5053763;28;20269;-63
2023/02/02 08:44:06;;;;;;;3.73;1.77;;;3.60;99.90;;;3.61;79.46;98972.69;5048393;28;20217;-62
2023/02/02 08:46:38;;;;;;;5.80;2.67;;;3.60;99.90;;;3.59;78.87;98976.91;5055085;28;20209;-63
2023/02/02 08:49:11;;;;;;;4.53;2.30;;;3.70;99.90;;;3.54;79.12;98984.56;5052939;28;20214;-63
2023/02/02 08:51:40;;;;;;;4.33;2.00;;;3.60;99.90;;;3.52;79.01;98978.63;5052023;28;20271;-64
2023/02/02 08:54:10;;;;;;;2.50;2.30;;;3.60;99.90;;;3.52;79.28;98987.97;5048591;28;20203;-64
2023/02/02 08:56:39;;;;;;;5.33;2.50;;;3.60;99.90;;;3.51;78.78;98988.81;5066451;28;20210;-67
2023/02/02 08:59:07;;;;;;;2.90;2.10;;;3.60;99.90;;;3.48;78.74;98984.56;5071008;28;20198;-65
2023/02/02 09:01:36;;;;;;;4.57;2.80;;;3.60;99.90;;;3.49;79.66;98977.75;5068492;28;20221;-66
2023/02/02 09:04:07;;;;;;;3.50;2.17;;;3.60;99.90;;;3.48;79.43;98979.47;5069086;28;20237;-67
2023/02/02 09:06:39;;;;;;;3.13;2.27;;;3.60;99.90;;;3.52;79.26;98986.25;5063227;28;20225;-67
2023/02/02 09:09:13;;;;;;;4.10;2.67;;;3.60;99.90;;;3.54;79.54;98979.47;5065065;28;20201;-67
2023/02/02 09:11:43;;;;;;;4.63;2.40;;;3.70;99.90;;;3.60;79.42;98987.09;5062404;28;20217;-68
2023/02/02 09:14:13;;;;;;;4.37;2.53;;;3.70;99.90;;;3.63;78.80;98988.81;5060685;28;20210;-64
2023/02/02 09:16:42;;;;;;;3.03;2.67;;;3.70;99.90;;;3.66;79.11;98991.34;5051471;28;20202;-65
2023/02/02 09:19:11;;;;;;;3.07;2.20;;;3.80;99.90;;;3.67;78.69;98987.94;5052755;28;20543;-67
2023/02/02 09:21:41;;;;;;;4.07;3.30;;;3.80;99.90;;;3.71;79.01;98988.78;5047747;28;20206;-67
2023/02/02 09:24:13;;;;;;;5.73;2.93;;;3.80;99.90;;;3.74;78.99;98987.09;5043423;28;20575;-66
2023/02/02 09:26:44;;;;;;;3.67;3.00;;;3.90;99.90;;;3.77;78.78;98992.19;5041654;28;20206;-65
2023/02/02 09:29:16;;;;;;;6.00;4.07;;;3.90;99.90;;;3.78;79.25;98993.88;5036368;28;20276;-67
2023/02/02 09:31:45;;;;;;;4.27;3.13;;;3.90;99.90;;;3.80;78.89;98999.84;5041472;28;20202;-66
2023/02/02 09:34:15;;;;;;;5.57;3.40;;;4.00;99.90;;;3.83;79.37;99007.47;5038493;28;20212;-65
2023/02/02 09:36:46;;;;;;;4.00;2.97;;;4.00;99.90;;;3.84;78.48;99014.25;5047078;28;20670;-69
2023/02/02 09:39:15;;;;;;;4.97;3.07;;;4.00;99.90;;;3.83;78.08;99004.09;5045990;28;20206;-64
2023/02/02 09:42:40;;;;;;;3.27;2.97;;;3.90;99.90;;;3.85;78.69;99017.66;5049060;28;20206;-65
2023/02/02 09:45:19;;;;;;;4.57;3.27;;;3.90;99.90;;;3.87;78.45;99018.50;5050886;28;20206;-64
2023/02/02 09:47:55;;;;;;;4.63;3.30;;;4.00;99.90;;;3.90;79.13;99015.94;5059859;28;20202;-65
2023/02/02 09:50:42;;;;;;;6.73;3.93;;;4.10;99.90;;;3.93;78.66;99025.28;5050560;28;20185;-68
2023/02/02 09:53:29;;;;;;;6.07;3.80;;;4.00;99.90;;;3.93;78.51;99027.84;5046464;28;20295;-69
2023/02/02 09:56:04;;;;;;;5.60;2.90;;;4.10;99.90;;;3.96;78.99;99040.56;5045036;28;20209;-69
2023/02/02 09:58:36;;;;;;;4.13;3.20;;;4.10;99.90;;;3.93;78.46;99040.56;5052376;28;20206;-67
2023/02/02 10:01:12;;;;;;;9.50;5.37;;;4.00;99.90;;;3.88;77.93;99043.97;5056593;28;20194;-68
2023/02/02 10:03:50;;;;;;;5.20;4.23;;;4.00;99.90;;;3.86;79.00;99045.66;5055629;28;20225;-67
2023/02/02 10:06:32;;;;;;;5.27;3.43;;;4.00;99.90;;;3.86;78.20;99048.22;5058789;28;20210;-68
2023/02/02 10:09:21;;;;;;;4.73;3.87;;;4.00;99.90;;;3.86;78.52;99055.84;5057572;28;21425;-65
2023/02/02 10:11:54;;;;;;;5.83;4.03;;;4.00;99.90;;;3.88;78.48;99059.28;5053126;28;20202;-64
2023/02/02 10:14:29;;;;;;;8.03;5.17;;;4.00;99.90;;;3.91;78.66;99060.13;5069237;28;20245;-67
2023/02/02 10:17:11;;;;;;;4.33;3.40;;;4.10;99.90;;;3.94;79.09;99068.63;5072076;28;20188;-67
2023/02/02 10:19:42;;;;;;;4.20;3.17;;;4.20;99.90;;;3.97;79.25;99076.25;5060858;28;20602;-65
2023/02/02 10:22:18;;;;;;;4.00;3.00;;;4.10;99.90;;;3.97;79.38;99073.69;5064580;28;20300;-65
2023/02/02 10:24:47;;;;;;;5.37;3.27;;;4.10;99.90;;;3.95;79.08;99070.31;5064827;28;20198;-65
2023/02/02 10:27:24;;;;;;;3.10;2.80;;;4.20;99.90;;;3.99;79.27;99078.81;5055697;28;20256;-63
2023/02/02 10:29:58;;;;;;;4.20;2.87;;;4.20;99.90;;;4.06;79.05;99075.41;5050196;28;20695;-67
2023/02/02 10:32:34;;;;;;;4.23;2.80;;;4.30;99.90;;;4.16;79.26;99081.31;5049286;28;20695;-67
2023/02/02 10:35:28;;;;;;;4.40;3.13;;;4.40;99.90;;;4.21;78.87;99089.84;5051691;28;20248;-67
2023/02/02 10:38:02;;;;;;;2.53;2.33;;;4.40;99.90;;;4.25;78.94;99083.88;5049214;28;20206;-65
2023/02/02 10:40:47;;;;;;;3.80;2.53;;;4.50;99.90;;;4.27;78.99;99092.34;5048132;28;20206;-66
2023/02/02 10:43:46;;;;;;;3.97;2.70;;;4.50;99.90;;;4.30;78.87;99094.91;5050882;28;20194;-67
2023/02/02 10:46:22;;;;;;;3.70;2.50;;;4.50;99.90;;;4.33;79.01;99095.75;5052347;28;20206;-67
2023/02/02 10:48:55;;;;;;;5.30;2.40;;;4.60;99.90;;;4.35;78.36;99104.25;5050172;28;20631;-65
2023/02/02 10:51:28;;;;;;;5.17;3.23;;;4.60;99.90;;;4.37;77.71;99106.78;5050610;28;20669;-65
2023/02/02 10:54:00;;;;;;;3.63;2.40;;;4.60;99.90;;;4.35;77.77;99105.97;5042970;28;20605;-64
2023/02/02 10:56:37;;;;;;;3.37;3.07;;;4.60;99.90;;;4.34;78.17;99117.00;5042712;28;20264;-64
2023/02/02 10:59:11;;;;;;;3.27;1.93;;;4.50;99.90;;;4.31;78.28;99122.97;5047910;28;20193;-63
2023/02/02 11:01:39;;;;;;;4.13;2.30;;;4.50;99.90;;;4.29;77.56;99124.66;5043567;28;20198;-63
2023/02/02 11:06:56;;;;;;;3.37;1.80;;;4.50;99.90;;;4.29;78.16;99134.00;5048145;28;20697;-64
2023/02/02 11:09:32;;;;;;;4.83;2.27;;;4.50;99.90;;;4.27;77.99;99141.69;5049196;28;20628;-63